sensor_id;sensor_type;location;lat;lon;timestamp;temperature;humidity
45237;DHT22;30973;51.442;3.580;2022-07-23T00:01:49;18.30;99.50
45237;DHT22;30973;51.442;3.580;2022-07-23T00:04:16;18.30;99.60
45237;DHT22;30973;51.442;3.580;2022-07-23T00:06:44;18.30;99.50
45237;DHT22;30973;51.442;3.580;2022-07-23T00:09:11;18.30;99.60
45237;DHT22;30973;51.442;3.580;2022-07-23T00:11:38;18.30;99.60
45237;DHT22;30973;51.442;3.580;2022-07-23T00:14:06;18.30;99.70
45237;DHT22;30973;51.442;3.580;2022-07-23T00:16:33;18.20;99.90
45237;DHT22;30973;51.442;3.580;2022-07-23T00:19:00;18.20;99.90
45237;DHT22;30973;51.442;3.580;2022-07-23T00:21:30;18.20;99.90
45237;DHT22;30973;51.442;3.580;2022-07-23T00:23:57;18.20;99.90
45237;DHT22;30973;51.442;3.580;2022-07-23T00:26:25;18.10;99.90
45237;DHT22;30973;51.442;3.580;2022-07-23T00:28:52;18.10;99.90
45237;DHT22;30973;51.442;3.580;2022-07-23T00:31:19;18.10;99.90
45237;DHT22;30973;51.442;3.580;2022-07-23T00:33:47;18.10;99.90
45237;DHT22;30973;51.442;3.580;2022-07-23T00:36:16;18.10;99.90
45237;DHT22;30973;51.442;3.580;2022-07-23T00:38:43;18.10;99.90
45237;DHT22;30973;51.442;3.580;2022-07-23T00:41:10;18.10;99.90
45237;DHT22;30973;51.442;3.580;2022-07-23T00:43:37;18.00;99.90
45237;DHT22;30973;51.442;3.580;2022-07-23T00:46:05;18.10;99.90
45237;DHT22;30973;51.442;3.580;2022-07-23T00:48:32;18.10;99.90
45237;DHT22;30973;51.442;3.580;2022-07-23T00:50:59;18.00;99.90
45237;DHT22;30973;51.442;3.580;2022-07-23T00:53:27;18.00;99.90
45237;DHT22;30973;51.442;3.580;2022-07-23T00:55:54;18.10;99.90
45237;DHT22;30973;51.442;3.580;2022-07-23T00:58:22;18.10;99.90
45237;DHT22;30973;51.442;3.580;2022-07-23T01:00:49;18.00;99.90
45237;DHT22;30973;51.442;3.580;2022-07-23T01:03:17;18.00;99.90
45237;DHT22;30973;51.442;3.580;2022-07-23T01:05:44;18.00;99.90
45237;DHT22;30973;51.442;3.580;2022-07-23T01:08:12;18.00;99.90
45237;DHT22;30973;51.442;3.580;2022-07-23T01:10:40;18.00;99.90
45237;DHT22;30973;51.442;3.580;2022-07-23T01:13:09;18.00;99.90
45237;DHT22;30973;51.442;3.580;2022-07-23T01:15:37;17.90;99.90
45237;DHT22;30973;51.442;3.580;2022-07-23T01:18:06;17.90;99.90
45237;DHT22;30973;51.442;3.580;2022-07-23T01:20:35;17.90;99.90
45237;DHT22;30973;51.442;3.580;2022-07-23T01:23:02;18.00;99.90
45237;DHT22;30973;51.442;3.580;2022-07-23T01:25:30;18.00;99.90
45237;DHT22;30973;51.442;3.580;2022-07-23T01:28:00;17.90;99.90
45237;DHT22;30973;51.442;3.580;2022-07-23T01:30:28;17.90;99.90
45237;DHT22;30973;51.442;3.580;2022-07-23T01:32:57;17.90;99.90
45237;DHT22;30973;51.442;3.580;2022-07-23T01:35:24;17.90;99.90
45237;DHT22;30973;51.442;3.580;2022-07-23T01:37:55;17.80;99.90
45237;DHT22;30973;51.442;3.580;2022-07-23T01:40:22;17.80;99.90
45237;DHT22;30973;51.442;3.580;2022-07-23T01:42:51;17.80;99.90
45237;DHT22;30973;51.442;3.580;2022-07-23T01:45:19;17.80;99.90
45237;DHT22;30973;51.442;3.580;2022-07-23T01:47:50;17.80;99.90
45237;DHT22;30973;51.442;3.580;2022-07-23T01:50:18;17.80;99.90
45237;DHT22;30973;51.442;3.580;2022-07-23T01:53:00;17.80;99.90
45237;DHT22;30973;51.442;3.580;2022-07-23T01:55:28;17.80;99.90
45237;DHT22;30973;51.442;3.580;2022-07-23T01:57:55;17.70;99.90
45237;DHT22;30973;51.442;3.580;2022-07-23T02:00:27;17.70;99.90
45237;DHT22;30973;51.442;3.580;2022-07-23T02:02:55;17.80;99.90
45237;DHT22;30973;51.442;3.580;2022-07-23T02:05:22;17.70;99.90
45237;DHT22;30973;51.442;3.580;2022-07-23T02:07:49;17.70;99.90
45237;DHT22;30973;51.442;3.580;2022-07-23T02:10:17;17.70;99.90
45237;DHT22;30973;51.442;3.580;2022-07-23T02:12:44;17.70;99.90
45237;DHT22;30973;51.442;3.580;2022-07-23T02:15:13;17.70;99.90
45237;DHT22;30973;51.442;3.580;2022-07-23T02:17:41;17.70;99.90
45237;DHT22;30973;51.442;3.580;2022-07-23T02:20:10;17.70;99.90
45237;DHT22;30973;51.442;3.580;2022-07-23T02:22:37;17.70;99.90
45237;DHT22;30973;51.442;3.580;2022-07-23T02:25:06;17.70;99.90
45237;DHT22;30973;51.442;3.580;2022-07-23T02:27:34;17.70;99.90
45237;DHT22;30973;51.442;3.580;2022-07-23T02:30:05;17.70;99.90
45237;DHT22;30973;51.442;3.580;2022-07-23T02:32:34;17.70;99.90
45237;DHT22;30973;51.442;3.580;2022-07-23T02:35:02;17.70;99.90
45237;DHT22;30973;51.442;3.580;2022-07-23T02:37:30;17.70;99.90
45237;DHT22;30973;51.442;3.580;2022-07-23T02:39:58;17.70;99.90
45237;DHT22;30973;51.442;3.580;2022-07-23T02:42:25;17.70;99.90
45237;DHT22;30973;51.442;3.580;2022-07-23T02:44:52;17.70;99.90
45237;DHT22;30973;51.442;3.580;2022-07-23T02:47:19;17.70;99.90
45237;DHT22;30973;51.442;3.580;2022-07-23T02:49:47;17.70;99.90
45237;DHT22;30973;51.442;3.580;2022-07-23T02:52:14;17.70;99.90
45237;DHT22;30973;51.442;3.580;2022-07-23T02:54:42;17.70;99.90
45237;DHT22;30973;51.442;3.580;2022-07-23T02:57:11;17.60;99.90
45237;DHT22;30973;51.442;3.580;2022-07-23T02:59:39;17.60;99.90
45237;DHT22;30973;51.442;3.580;2022-07-23T03:02:06;17.60;99.90
45237;DHT22;30973;51.442;3.580;2022-07-23T03:04:33;17.60;99.90
45237;DHT22;30973;51.442;3.580;2022-07-23T03:07:01;17.50;99.90
45237;DHT22;30973;51.442;3.580;2022-07-23T03:09:28;17.50;99.90
45237;DHT22;30973;51.442;3.580;2022-07-23T03:11:56;17.50;99.90
45237;DHT22;30973;51.442;3.580;2022-07-23T03:14:23;17.50;99.90
45237;DHT22;30973;51.442;3.580;2022-07-23T03:16:50;17.50;99.90
45237;DHT22;30973;51.442;3.580;2022-07-23T03:19:20;17.50;99.90
45237;DHT22;30973;51.442;3.580;2022-07-23T03:21:47;17.50;99.90
45237;DHT22;30973;51.442;3.580;2022-07-23T03:24:15;17.40;99.90
45237;DHT22;30973;51.442;3.580;2022-07-23T03:26:44;17.40;99.90
45237;DHT22;30973;51.442;3.580;2022-07-23T03:29:12;17.40;99.90
45237;DHT22;30973;51.442;3.580;2022-07-23T03:31:39;17.40;99.90
45237;DHT22;30973;51.442;3.580;2022-07-23T03:34:07;17.30;99.90
45237;DHT22;30973;51.442;3.580;2022-07-23T03:36:34;17.40;99.90
45237;DHT22;30973;51.442;3.580;2022-07-23T03:39:04;17.50;99.90
45237;DHT22;30973;51.442;3.580;2022-07-23T03:41:31;17.50;99.90
45237;DHT22;30973;51.442;3.580;2022-07-23T03:43:59;17.50;99.90
45237;DHT22;30973;51.442;3.580;2022-07-23T03:46:26;17.60;99.90
45237;DHT22;30973;51.442;3.580;2022-07-23T03:48:54;17.60;99.90
45237;DHT22;30973;51.442;3.580;2022-07-23T03:51:25;17.60;99.90
45237;DHT22;30973;51.442;3.580;2022-07-23T03:53:52;17.60;99.90
45237;DHT22;30973;51.442;3.580;2022-07-23T03:56:20;17.60;99.90
45237;DHT22;30973;51.442;3.580;2022-07-23T03:58:47;17.70;99.90
45237;DHT22;30973;51.442;3.580;2022-07-23T04:01:14;17.60;99.90
45237;DHT22;30973;51.442;3.580;2022-07-23T04:03:42;17.60;99.90
45237;DHT22;30973;51.442;3.580;2022-07-23T04:06:10;17.60;99.90
45237;DHT22;30973;51.442;3.580;2022-07-23T04:08:38;17.70;99.90
45237;DHT22;30973;51.442;3.580;2022-07-23T04:11:05;17.70;99.90
45237;DHT22;30973;51.442;3.580;2022-07-23T04:13:32;17.60;99.90
45237;DHT22;30973;51.442;3.580;2022-07-23T04:16:02;17.60;99.90
45237;DHT22;30973;51.442;3.580;2022-07-23T04:18:30;17.60;99.90
45237;DHT22;30973;51.442;3.580;2022-07-23T04:21:06;17.60;99.90
45237;DHT22;30973;51.442;3.580;2022-07-23T04:23:34;17.60;99.90
45237;DHT22;30973;51.442;3.580;2022-07-23T04:26:03;17.60;99.90
45237;DHT22;30973;51.442;3.580;2022-07-23T04:28:31;17.50;99.90
45237;DHT22;30973;51.442;3.580;2022-07-23T04:30:58;17.50;99.90
45237;DHT22;30973;51.442;3.580;2022-07-23T04:33:27;17.50;99.90
45237;DHT22;30973;51.442;3.580;2022-07-23T04:35:56;17.60;99.90
45237;DHT22;30973;51.442;3.580;2022-07-23T04:38:23;17.50;99.90
45237;DHT22;30973;51.442;3.580;2022-07-23T04:40:55;17.60;99.90
45237;DHT22;30973;51.442;3.580;2022-07-23T04:43:22;17.60;99.90
45237;DHT22;30973;51.442;3.580;2022-07-23T04:45:50;17.80;99.90
45237;DHT22;30973;51.442;3.580;2022-07-23T04:48:18;17.80;99.90
45237;DHT22;30973;51.442;3.580;2022-07-23T04:50:50;17.80;99.90
45237;DHT22;30973;51.442;3.580;2022-07-23T04:53:22;17.80;99.90
45237;DHT22;30973;51.442;3.580;2022-07-23T04:55:52;17.90;99.90
45237;DHT22;30973;51.442;3.580;2022-07-23T04:58:20;17.90;99.90
45237;DHT22;30973;51.442;3.580;2022-07-23T05:00:47;18.00;99.90
45237;DHT22;30973;51.442;3.580;2022-07-23T05:03:16;18.00;99.90
45237;DHT22;30973;51.442;3.580;2022-07-23T05:05:46;18.00;99.90
45237;DHT22;30973;51.442;3.580;2022-07-23T05:08:16;18.10;99.90
45237;DHT22;30973;51.442;3.580;2022-07-23T05:10:46;18.10;99.90
45237;DHT22;30973;51.442;3.580;2022-07-23T05:13:15;18.10;99.90
45237;DHT22;30973;51.442;3.580;2022-07-23T05:15:43;18.20;99.90
45237;DHT22;30973;51.442;3.580;2022-07-23T05:18:11;18.20;99.90
45237;DHT22;30973;51.442;3.580;2022-07-23T05:20:39;18.20;99.90
45237;DHT22;30973;51.442;3.580;2022-07-23T05:23:07;18.30;99.90
45237;DHT22;30973;51.442;3.580;2022-07-23T05:25:34;18.30;99.90
45237;DHT22;30973;51.442;3.580;2022-07-23T05:28:02;18.30;99.90
45237;DHT22;30973;51.442;3.580;2022-07-23T05:30:29;18.40;99.90
45237;DHT22;30973;51.442;3.580;2022-07-23T05:33:00;18.40;99.90
45237;DHT22;30973;51.442;3.580;2022-07-23T05:35:27;18.40;99.90
45237;DHT22;30973;51.442;3.580;2022-07-23T05:38:21;18.40;99.90
45237;DHT22;30973;51.442;3.580;2022-07-23T05:40:49;18.40;99.90
45237;DHT22;30973;51.442;3.580;2022-07-23T05:43:17;18.60;99.90
45237;DHT22;30973;51.442;3.580;2022-07-23T05:45:45;18.60;99.90
45237;DHT22;30973;51.442;3.580;2022-07-23T05:48:12;18.70;99.90
45237;DHT22;30973;51.442;3.580;2022-07-23T05:50:55;18.80;99.90
45237;DHT22;30973;51.442;3.580;2022-07-23T05:53:30;18.90;99.90
45237;DHT22;30973;51.442;3.580;2022-07-23T05:56:08;19.00;99.90
45237;DHT22;30973;51.442;3.580;2022-07-23T05:58:36;19.80;99.90
45237;DHT22;30973;51.442;3.580;2022-07-23T06:01:04;20.80;99.90
45237;DHT22;30973;51.442;3.580;2022-07-23T06:03:39;21.70;99.90
45237;DHT22;30973;51.442;3.580;2022-07-23T06:06:07;22.40;98.80
45237;DHT22;30973;51.442;3.580;2022-07-23T06:08:35;23.00;97.70
45237;DHT22;30973;51.442;3.580;2022-07-23T06:11:02;23.40;97.00
45237;DHT22;30973;51.442;3.580;2022-07-23T06:13:30;23.90;97.00
45237;DHT22;30973;51.442;3.580;2022-07-23T06:15:57;24.40;96.50
45237;DHT22;30973;51.442;3.580;2022-07-23T06:18:24;24.70;95.50
45237;DHT22;30973;51.442;3.580;2022-07-23T06:20:53;25.00;94.70
45237;DHT22;30973;51.442;3.580;2022-07-23T06:23:26;25.40;95.40
45237;DHT22;30973;51.442;3.580;2022-07-23T06:25:54;25.70;93.50
45237;DHT22;30973;51.442;3.580;2022-07-23T06:28:21;25.80;92.60
45237;DHT22;30973;51.442;3.580;2022-07-23T06:30:48;25.40;93.30
45237;DHT22;30973;51.442;3.580;2022-07-23T06:33:16;24.90;92.30
45237;DHT22;30973;51.442;3.580;2022-07-23T06:35:44;24.50;93.00
45237;DHT22;30973;51.442;3.580;2022-07-23T06:38:11;24.10;93.40
45237;DHT22;30973;51.442;3.580;2022-07-23T06:40:41;23.90;93.30
45237;DHT22;30973;51.442;3.580;2022-07-23T06:43:08;23.90;94.00
45237;DHT22;30973;51.442;3.580;2022-07-23T06:45:37;24.40;94.90
45237;DHT22;30973;51.442;3.580;2022-07-23T06:48:04;25.00;94.50
45237;DHT22;30973;51.442;3.580;2022-07-23T06:50:31;25.60;93.90
45237;DHT22;30973;51.442;3.580;2022-07-23T06:52:59;26.10;93.50
45237;DHT22;30973;51.442;3.580;2022-07-23T06:55:26;26.40;92.80
45237;DHT22;30973;51.442;3.580;2022-07-23T06:57:53;26.70;92.70
45237;DHT22;30973;51.442;3.580;2022-07-23T07:00:21;26.70;91.70
45237;DHT22;30973;51.442;3.580;2022-07-23T07:02:48;26.90;92.00
45237;DHT22;30973;51.442;3.580;2022-07-23T07:05:16;27.00;90.70
45237;DHT22;30973;51.442;3.580;2022-07-23T07:07:43;27.20;91.50
45237;DHT22;30973;51.442;3.580;2022-07-23T07:10:10;27.30;90.90
45237;DHT22;30973;51.442;3.580;2022-07-23T07:12:42;27.40;90.90
45237;DHT22;30973;51.442;3.580;2022-07-23T07:15:09;27.50;91.00
45237;DHT22;30973;51.442;3.580;2022-07-23T07:17:37;27.60;90.50
45237;DHT22;30973;51.442;3.580;2022-07-23T07:20:05;27.60;90.50
45237;DHT22;30973;51.442;3.580;2022-07-23T07:22:33;27.60;90.00
45237;DHT22;30973;51.442;3.580;2022-07-23T07:25:00;27.60;89.90
45237;DHT22;30973;51.442;3.580;2022-07-23T07:27:27;27.60;89.90
45237;DHT22;30973;51.442;3.580;2022-07-23T07:29:54;27.60;88.90
45237;DHT22;30973;51.442;3.580;2022-07-23T07:32:21;27.60;89.20
45237;DHT22;30973;51.442;3.580;2022-07-23T07:35:09;27.50;89.30
45237;DHT22;30973;51.442;3.580;2022-07-23T07:37:36;27.40;89.70
45237;DHT22;30973;51.442;3.580;2022-07-23T07:40:04;27.40;89.70
45237;DHT22;30973;51.442;3.580;2022-07-23T07:42:32;27.40;89.60
45237;DHT22;30973;51.442;3.580;2022-07-23T07:44:59;27.40;89.00
45237;DHT22;30973;51.442;3.580;2022-07-23T07:47:26;27.20;88.70
45237;DHT22;30973;51.442;3.580;2022-07-23T07:49:54;27.00;89.40
45237;DHT22;30973;51.442;3.580;2022-07-23T07:52:21;26.80;89.60
45237;DHT22;30973;51.442;3.580;2022-07-23T07:54:48;26.60;90.10
45237;DHT22;30973;51.442;3.580;2022-07-23T07:57:15;26.40;89.60
45237;DHT22;30973;51.442;3.580;2022-07-23T07:59:43;26.20;90.00
45237;DHT22;30973;51.442;3.580;2022-07-23T08:02:12;26.00;90.00
45237;DHT22;30973;51.442;3.580;2022-07-23T08:04:39;25.90;90.40
45237;DHT22;30973;51.442;3.580;2022-07-23T08:07:06;25.70;90.50
45237;DHT22;30973;51.442;3.580;2022-07-23T08:09:33;25.60;90.40
45237;DHT22;30973;51.442;3.580;2022-07-23T08:12:00;25.50;90.70
45237;DHT22;30973;51.442;3.580;2022-07-23T08:14:27;25.40;90.80
45237;DHT22;30973;51.442;3.580;2022-07-23T08:16:55;25.20;91.00
45237;DHT22;30973;51.442;3.580;2022-07-23T08:19:39;25.20;91.20
45237;DHT22;30973;51.442;3.580;2022-07-23T08:22:07;25.20;91.10
45237;DHT22;30973;51.442;3.580;2022-07-23T08:24:34;25.20;91.10
45237;DHT22;30973;51.442;3.580;2022-07-23T08:27:01;25.10;91.20
45237;DHT22;30973;51.442;3.580;2022-07-23T08:29:29;25.00;91.40
45237;DHT22;30973;51.442;3.580;2022-07-23T08:31:57;25.10;91.30
45237;DHT22;30973;51.442;3.580;2022-07-23T08:34:24;25.00;91.20
45237;DHT22;30973;51.442;3.580;2022-07-23T08:36:51;25.00;91.10
45237;DHT22;30973;51.442;3.580;2022-07-23T08:39:18;25.10;91.20
45237;DHT22;30973;51.442;3.580;2022-07-23T08:41:45;25.10;91.30
45237;DHT22;30973;51.442;3.580;2022-07-23T08:44:16;25.10;91.20
45237;DHT22;30973;51.442;3.580;2022-07-23T08:46:44;25.10;91.30
45237;DHT22;30973;51.442;3.580;2022-07-23T08:49:12;25.10;91.20
45237;DHT22;30973;51.442;3.580;2022-07-23T08:51:40;25.20;91.20
45237;DHT22;30973;51.442;3.580;2022-07-23T08:54:08;25.00;90.90
45237;DHT22;30973;51.442;3.580;2022-07-23T08:56:35;25.00;91.10
45237;DHT22;30973;51.442;3.580;2022-07-23T08:59:02;25.10;91.10
45237;DHT22;30973;51.442;3.580;2022-07-23T09:01:30;25.00;91.10
45237;DHT22;30973;51.442;3.580;2022-07-23T09:03:58;25.00;91.30
45237;DHT22;30973;51.442;3.580;2022-07-23T09:06:26;25.20;91.00
45237;DHT22;30973;51.442;3.580;2022-07-23T09:08:53;25.20;91.40
45237;DHT22;30973;51.442;3.580;2022-07-23T09:11:21;25.20;91.10
45237;DHT22;30973;51.442;3.580;2022-07-23T09:16:19;25.30;91.10
45237;DHT22;30973;51.442;3.580;2022-07-23T09:19:03;25.40;90.50
45237;DHT22;30973;51.442;3.580;2022-07-23T09:21:35;25.40;91.00
45237;DHT22;30973;51.442;3.580;2022-07-23T09:24:13;25.50;90.70
45237;DHT22;30973;51.442;3.580;2022-07-23T09:26:47;25.40;90.60
45237;DHT22;30973;51.442;3.580;2022-07-23T09:29:23;25.50;90.60
45237;DHT22;30973;51.442;3.580;2022-07-23T09:31:56;25.50;90.80
45237;DHT22;30973;51.442;3.580;2022-07-23T09:34:26;25.50;90.40
45237;DHT22;30973;51.442;3.580;2022-07-23T09:37:19;25.60;90.60
45237;DHT22;30973;51.442;3.580;2022-07-23T09:39:49;25.50;89.60
45237;DHT22;30973;51.442;3.580;2022-07-23T09:42:22;25.60;90.50
45237;DHT22;30973;51.442;3.580;2022-07-23T09:45:00;25.60;90.20
45237;DHT22;30973;51.442;3.580;2022-07-23T09:47:30;25.70;90.50
45237;DHT22;30973;51.442;3.580;2022-07-23T09:50:06;25.80;90.40
45237;DHT22;30973;51.442;3.580;2022-07-23T09:52:45;25.80;89.70
45237;DHT22;30973;51.442;3.580;2022-07-23T09:55:17;25.80;90.00
45237;DHT22;30973;51.442;3.580;2022-07-23T09:57:46;25.80;89.60
45237;DHT22;30973;51.442;3.580;2022-07-23T10:00:23;25.80;89.80
45237;DHT22;30973;51.442;3.580;2022-07-23T10:02:51;25.80;89.40
45237;DHT22;30973;51.442;3.580;2022-07-23T10:05:29;25.90;89.70
45237;DHT22;30973;51.442;3.580;2022-07-23T10:08:18;26.00;89.70
45237;DHT22;30973;51.442;3.580;2022-07-23T10:11:17;26.00;88.50
45237;DHT22;30973;51.442;3.580;2022-07-23T10:14:14;26.10;87.60
45237;DHT22;30973;51.442;3.580;2022-07-23T10:16:53;26.10;89.00
45237;DHT22;30973;51.442;3.580;2022-07-23T10:19:21;26.10;88.50
45237;DHT22;30973;51.442;3.580;2022-07-23T10:21:53;26.20;88.30
45237;DHT22;30973;51.442;3.580;2022-07-23T10:36:18;26.30;87.90
45237;DHT22;30973;51.442;3.580;2022-07-23T10:39:22;26.40;88.00
45237;DHT22;30973;51.442;3.580;2022-07-23T10:41:51;26.30;87.30
45237;DHT22;30973;51.442;3.580;2022-07-23T10:44:20;26.30;87.60
45237;DHT22;30973;51.442;3.580;2022-07-23T10:49:35;26.30;87.20
45237;DHT22;30973;51.442;3.580;2022-07-23T10:54:56;26.40;87.70
45237;DHT22;30973;51.442;3.580;2022-07-23T10:57:28;26.30;86.90
45237;DHT22;30973;51.442;3.580;2022-07-23T11:02:43;26.40;87.40
45237;DHT22;30973;51.442;3.580;2022-07-23T11:05:13;26.50;87.40
45237;DHT22;30973;51.442;3.580;2022-07-23T11:18:56;27.00;86.60
45237;DHT22;30973;51.442;3.580;2022-07-23T11:29:37;27.00;85.30
45237;DHT22;30973;51.442;3.580;2022-07-23T11:32:25;27.00;84.90
45237;DHT22;30973;51.442;3.580;2022-07-23T11:34:55;27.00;85.60
45237;DHT22;30973;51.442;3.580;2022-07-23T11:37:39;26.90;85.20
45237;DHT22;30973;51.442;3.580;2022-07-23T11:40:12;26.90;86.40
45237;DHT22;30973;51.442;3.580;2022-07-23T11:42:58;27.00;85.80
45237;DHT22;30973;51.442;3.580;2022-07-23T11:45:34;27.10;86.00
45237;DHT22;30973;51.442;3.580;2022-07-23T11:48:04;27.10;84.80
45237;DHT22;30973;51.442;3.580;2022-07-23T11:50:32;27.10;83.90
45237;DHT22;30973;51.442;3.580;2022-07-23T11:53:00;27.10;84.10
45237;DHT22;30973;51.442;3.580;2022-07-23T11:55:27;26.90;84.50
45237;DHT22;30973;51.442;3.580;2022-07-23T11:57:55;26.80;84.80
45237;DHT22;30973;51.442;3.580;2022-07-23T12:00:28;26.80;85.10
45237;DHT22;30973;51.442;3.580;2022-07-23T12:02:57;26.90;85.00
45237;DHT22;30973;51.442;3.580;2022-07-23T12:05:31;27.10;85.50
45237;DHT22;30973;51.442;3.580;2022-07-23T12:08:00;27.30;84.90
45237;DHT22;30973;51.442;3.580;2022-07-23T12:10:30;27.30;84.30
45237;DHT22;30973;51.442;3.580;2022-07-23T12:13:02;27.30;83.80
45237;DHT22;30973;51.442;3.580;2022-07-23T12:15:35;27.20;83.40
45237;DHT22;30973;51.442;3.580;2022-07-23T12:18:07;27.20;83.00
45237;DHT22;30973;51.442;3.580;2022-07-23T12:20:40;27.20;83.30
45237;DHT22;30973;51.442;3.580;2022-07-23T12:23:13;27.10;83.60
45237;DHT22;30973;51.442;3.580;2022-07-23T12:25:49;27.20;83.40
45237;DHT22;30973;51.442;3.580;2022-07-23T12:28:21;27.30;83.50
45237;DHT22;30973;51.442;3.580;2022-07-23T12:30:51;27.30;83.00
45237;DHT22;30973;51.442;3.580;2022-07-23T12:35:55;27.50;82.60
45237;DHT22;30973;51.442;3.580;2022-07-23T12:38:25;27.50;82.70
45237;DHT22;30973;51.442;3.580;2022-07-23T12:40:55;27.60;84.10
45237;DHT22;30973;51.442;3.580;2022-07-23T12:43:28;27.70;84.10
45237;DHT22;30973;51.442;3.580;2022-07-23T12:46:13;27.70;84.00
45237;DHT22;30973;51.442;3.580;2022-07-23T12:53:55;27.70;83.80
45237;DHT22;30973;51.442;3.580;2022-07-23T12:56:30;27.60;84.40
45237;DHT22;30973;51.442;3.580;2022-07-23T12:58:58;27.40;84.50
45237;DHT22;30973;51.442;3.580;2022-07-23T13:01:33;27.30;84.70
45237;DHT22;30973;51.442;3.580;2022-07-23T13:06:49;27.50;83.90
45237;DHT22;30973;51.442;3.580;2022-07-23T13:09:22;27.50;83.90
45237;DHT22;30973;51.442;3.580;2022-07-23T13:11:52;27.60;85.50
45237;DHT22;30973;51.442;3.580;2022-07-23T13:14:24;27.70;85.30
45237;DHT22;30973;51.442;3.580;2022-07-23T13:16:53;27.80;85.60
45237;DHT22;30973;51.442;3.580;2022-07-23T13:19:23;27.90;85.20
45237;DHT22;30973;51.442;3.580;2022-07-23T13:21:51;28.00;85.10
45237;DHT22;30973;51.442;3.580;2022-07-23T13:24:21;28.00;83.40
45237;DHT22;30973;51.442;3.580;2022-07-23T13:26:48;28.00;82.10
45237;DHT22;30973;51.442;3.580;2022-07-23T13:29:18;28.10;83.70
45237;DHT22;30973;51.442;3.580;2022-07-23T13:31:46;28.10;84.60
45237;DHT22;30973;51.442;3.580;2022-07-23T13:34:15;28.20;83.10
45237;DHT22;30973;51.442;3.580;2022-07-23T13:36:42;28.30;83.50
45237;DHT22;30973;51.442;3.580;2022-07-23T13:39:11;28.30;82.20
45237;DHT22;30973;51.442;3.580;2022-07-23T13:41:38;28.30;83.40
45237;DHT22;30973;51.442;3.580;2022-07-23T13:44:06;28.40;84.30
45237;DHT22;30973;51.442;3.580;2022-07-23T13:46:34;28.30;83.00
45237;DHT22;30973;51.442;3.580;2022-07-23T13:49:02;28.30;84.10
45237;DHT22;30973;51.442;3.580;2022-07-23T13:51:33;28.50;83.10
45237;DHT22;30973;51.442;3.580;2022-07-23T13:54:00;28.50;82.50
45237;DHT22;30973;51.442;3.580;2022-07-23T13:56:29;28.60;83.20
45237;DHT22;30973;51.442;3.580;2022-07-23T13:58:56;28.70;83.40
45237;DHT22;30973;51.442;3.580;2022-07-23T14:01:24;28.70;82.20
45237;DHT22;30973;51.442;3.580;2022-07-23T14:03:52;28.80;81.50
45237;DHT22;30973;51.442;3.580;2022-07-23T14:06:19;28.70;83.50
45237;DHT22;30973;51.442;3.580;2022-07-23T14:08:59;28.80;83.50
45237;DHT22;30973;51.442;3.580;2022-07-23T14:11:27;28.80;83.40
45237;DHT22;30973;51.442;3.580;2022-07-23T14:13:56;28.80;82.40
45237;DHT22;30973;51.442;3.580;2022-07-23T14:16:23;28.80;80.80
45237;DHT22;30973;51.442;3.580;2022-07-23T14:18:50;28.80;81.10
45237;DHT22;30973;51.442;3.580;2022-07-23T14:21:18;28.70;82.10
45237;DHT22;30973;51.442;3.580;2022-07-23T14:23:45;28.70;83.10
45237;DHT22;30973;51.442;3.580;2022-07-23T14:26:12;28.60;81.50
45237;DHT22;30973;51.442;3.580;2022-07-23T14:28:41;28.60;81.50
45237;DHT22;30973;51.442;3.580;2022-07-23T14:31:08;28.50;82.80
45237;DHT22;30973;51.442;3.580;2022-07-23T14:33:48;28.40;82.00
45237;DHT22;30973;51.442;3.580;2022-07-23T14:36:16;28.30;81.90
45237;DHT22;30973;51.442;3.580;2022-07-23T14:38:43;28.20;83.20
45237;DHT22;30973;51.442;3.580;2022-07-23T14:41:10;28.30;83.90
45237;DHT22;30973;51.442;3.580;2022-07-23T14:43:38;28.30;84.30
45237;DHT22;30973;51.442;3.580;2022-07-23T14:46:05;28.30;84.50
45237;DHT22;30973;51.442;3.580;2022-07-23T14:48:32;28.30;84.70
45237;DHT22;30973;51.442;3.580;2022-07-23T14:51:00;28.30;84.60
45237;DHT22;30973;51.442;3.580;2022-07-23T14:53:29;28.40;84.40
45237;DHT22;30973;51.442;3.580;2022-07-23T14:55:56;28.50;84.60
45237;DHT22;30973;51.442;3.580;2022-07-23T14:58:24;28.50;84.60
45237;DHT22;30973;51.442;3.580;2022-07-23T15:00:52;28.50;84.20
45237;DHT22;30973;51.442;3.580;2022-07-23T15:03:19;28.60;84.30
45237;DHT22;30973;51.442;3.580;2022-07-23T15:05:47;28.50;84.70
45237;DHT22;30973;51.442;3.580;2022-07-23T15:08:14;28.40;84.30
45237;DHT22;30973;51.442;3.580;2022-07-23T15:10:49;28.50;84.00
45237;DHT22;30973;51.442;3.580;2022-07-23T15:13:17;28.40;84.10
45237;DHT22;30973;51.442;3.580;2022-07-23T15:15:45;28.30;84.00
45237;DHT22;30973;51.442;3.580;2022-07-23T15:18:22;28.30;83.80
45237;DHT22;30973;51.442;3.580;2022-07-23T15:20:49;28.30;83.70
45237;DHT22;30973;51.442;3.580;2022-07-23T15:23:16;28.20;84.00
45237;DHT22;30973;51.442;3.580;2022-07-23T15:25:43;28.20;84.30
45237;DHT22;30973;51.442;3.580;2022-07-23T15:28:17;28.30;84.00
45237;DHT22;30973;51.442;3.580;2022-07-23T15:30:49;28.20;84.10
45237;DHT22;30973;51.442;3.580;2022-07-23T15:33:17;28.10;83.90
45237;DHT22;30973;51.442;3.580;2022-07-23T15:35:47;28.10;84.30
45237;DHT22;30973;51.442;3.580;2022-07-23T15:38:15;28.10;84.50
45237;DHT22;30973;51.442;3.580;2022-07-23T15:40:52;28.10;84.40
45237;DHT22;30973;51.442;3.580;2022-07-23T15:43:20;28.10;84.50
45237;DHT22;30973;51.442;3.580;2022-07-23T15:45:48;28.00;84.40
45237;DHT22;30973;51.442;3.580;2022-07-23T15:48:15;28.00;85.00
45237;DHT22;30973;51.442;3.580;2022-07-23T15:50:42;28.00;84.50
45237;DHT22;30973;51.442;3.580;2022-07-23T15:53:12;28.00;84.70
45237;DHT22;30973;51.442;3.580;2022-07-23T15:55:42;28.00;84.70
45237;DHT22;30973;51.442;3.580;2022-07-23T15:58:13;28.00;84.70
45237;DHT22;30973;51.442;3.580;2022-07-23T16:00:41;28.00;84.80
45237;DHT22;30973;51.442;3.580;2022-07-23T16:03:13;28.00;84.10
45237;DHT22;30973;51.442;3.580;2022-07-23T16:05:41;28.00;84.40
45237;DHT22;30973;51.442;3.580;2022-07-23T16:08:09;28.00;84.30
45237;DHT22;30973;51.442;3.580;2022-07-23T16:10:36;28.00;84.30
45237;DHT22;30973;51.442;3.580;2022-07-23T16:13:03;28.00;83.80
45237;DHT22;30973;51.442;3.580;2022-07-23T16:15:31;27.90;82.90
45237;DHT22;30973;51.442;3.580;2022-07-23T16:17:58;27.80;83.70
45237;DHT22;30973;51.442;3.580;2022-07-23T16:20:26;27.80;84.10
45237;DHT22;30973;51.442;3.580;2022-07-23T16:22:53;27.80;83.60
45237;DHT22;30973;51.442;3.580;2022-07-23T16:25:20;27.80;84.30
45237;DHT22;30973;51.442;3.580;2022-07-23T16:27:48;27.70;83.90
45237;DHT22;30973;51.442;3.580;2022-07-23T16:30:15;27.70;82.90
45237;DHT22;30973;51.442;3.580;2022-07-23T16:32:42;27.60;83.10
45237;DHT22;30973;51.442;3.580;2022-07-23T16:35:11;27.40;82.90
45237;DHT22;30973;51.442;3.580;2022-07-23T16:37:41;27.40;84.10